createdAt,value
2023-11-01T00:01:04.258Z,5.10
2023-11-01T00:03:32.528Z,4.87
2023-11-01T00:06:00.530Z,4.93
2023-11-01T00:08:28.725Z,5.00
2023-11-01T00:10:57.702Z,4.80
2023-11-01T00:13:25.600Z,5.45
2023-11-01T00:15:53.634Z,4.70
2023-11-01T00:18:21.908Z,5.40
2023-11-01T00:20:49.776Z,4.80
2023-11-01T00:23:16.577Z,4.80
2023-11-01T00:25:44.676Z,5.00
2023-11-01T00:28:12.768Z,5.23
2023-11-01T00:30:40.820Z,4.67
2023-11-01T00:33:07.590Z,4.60
2023-11-01T00:35:35.562Z,4.70
2023-11-01T00:38:07.043Z,5.20
2023-11-01T00:40:33.729Z,5.47
2023-11-01T00:43:02.062Z,4.87
2023-11-01T00:45:29.873Z,5.40
2023-11-01T00:47:57.752Z,4.40
2023-11-01T00:50:24.572Z,6.03
2023-11-01T00:52:52.353Z,6.67
2023-11-01T00:55:20.276Z,14.23
2023-11-01T00:57:49.727Z,10.37
2023-11-01T01:00:17.674Z,6.67
2023-11-01T01:02:45.871Z,7.77
2023-11-01T01:05:14.227Z,6.73
2023-11-01T01:07:42.288Z,6.70
2023-11-01T01:10:10.483Z,6.83
2023-11-01T01:12:38.705Z,6.63
2023-11-01T01:15:07.300Z,5.53
2023-11-01T01:17:35.885Z,6.60
2023-11-01T01:20:04.505Z,5.60
2023-11-01T01:22:32.211Z,5.75
2023-11-01T01:25:00.239Z,5.90
2023-11-01T01:27:27.951Z,5.87
2023-11-01T01:29:55.945Z,6.30
2023-11-01T01:32:23.853Z,5.83
2023-11-01T01:34:52.083Z,5.93
2023-11-01T01:37:20.104Z,5.73
2023-11-01T01:39:48.172Z,5.57
2023-11-01T01:42:16.474Z,5.57
2023-11-01T01:44:44.549Z,5.83
2023-11-01T01:47:11.793Z,5.40
2023-11-01T01:49:45.317Z,7.03
2023-11-01T01:52:14.287Z,6.77
2023-11-01T01:54:41.998Z,4.93
2023-11-01T01:57:11.071Z,5.10
2023-11-01T01:59:39.885Z,5.28
2023-11-01T02:02:09.533Z,4.68
2023-11-01T02:04:37.564Z,5.13
2023-11-01T02:07:06.035Z,5.13
2023-11-01T02:09:34.282Z,4.63
2023-11-01T02:12:02.469Z,5.13
2023-11-01T02:14:30.270Z,4.63
2023-11-01T02:16:58.541Z,4.93
2023-11-01T02:19:26.689Z,5.20
2023-11-01T02:21:54.438Z,5.50
2023-11-01T02:24:22.341Z,5.10
2023-11-01T02:26:50.313Z,4.90
2023-11-01T02:29:18.195Z,5.00
2023-11-01T02:31:46.432Z,5.13
2023-11-01T02:34:14.279Z,4.70
2023-11-01T02:36:44.601Z,5.20
2023-11-01T02:39:12.824Z,4.90
2023-11-01T02:41:40.689Z,4.50
2023-11-01T02:44:12.105Z,4.47
2023-11-01T02:46:38.881Z,4.60
2023-11-01T02:49:06.861Z,4.37
2023-11-01T02:51:34.802Z,4.63
2023-11-01T02:54:02.884Z,4.73
2023-11-01T02:56:30.983Z,4.60
2023-11-01T02:58:58.721Z,4.67
2023-11-01T03:01:27.637Z,4.40
2023-11-01T03:03:54.650Z,4.40
2023-11-01T03:06:22.482Z,4.60
2023-11-01T03:08:51.718Z,4.50
2023-11-01T03:11:19.748Z,4.13
2023-11-01T03:13:47.836Z,4.70
2023-11-01T03:16:17.013Z,4.50
2023-11-01T03:18:46.083Z,4.60
2023-11-01T03:21:14.013Z,4.70
2023-11-01T03:23:42.073Z,4.50
2023-11-01T03:26:09.886Z,4.40
2023-11-01T03:28:38.113Z,4.70
2023-11-01T03:31:06.188Z,4.60
2023-11-01T03:33:32.966Z,4.40
2023-11-01T03:36:00.629Z,4.80
2023-11-01T03:38:28.710Z,4.70
2023-11-01T03:40:56.683Z,4.70
2023-11-01T03:43:25.217Z,4.87
2023-11-01T03:45:53.437Z,4.30
2023-11-01T03:48:21.537Z,5.17
2023-11-01T03:50:48.707Z,5.10
2023-11-01T03:53:16.783Z,5.07
2023-11-01T03:55:44.666Z,4.97
2023-11-01T03:58:12.628Z,5.17
2023-11-01T04:00:40.514Z,4.83
2023-11-01T04:03:09.095Z,5.07
2023-11-01T04:05:38.266Z,4.75
2023-11-01T04:08:06.495Z,5.35
2023-11-01T04:10:33.190Z,5.70
2023-11-01T04:13:01.188Z,5.77
2023-11-01T04:15:28.987Z,6.03
2023-11-01T04:17:57.272Z,5.27
2023-11-01T04:20:23.995Z,5.40
2023-11-01T04:22:52.940Z,4.70
2023-11-01T04:25:20.802Z,5.38
2023-11-01T04:27:49.415Z,4.93
2023-11-01T04:30:17.758Z,5.20
2023-11-01T04:32:45.778Z,5.40
2023-11-01T04:35:14.300Z,5.50
2023-11-01T04:37:43.670Z,5.60
2023-11-01T04:40:14.577Z,5.30
2023-11-01T04:42:46.087Z,5.50
2023-11-01T04:45:14.199Z,5.60
2023-11-01T04:47:44.597Z,5.70
2023-11-01T04:50:12.425Z,5.33
2023-11-01T04:52:42.096Z,5.50
2023-11-01T04:55:11.828Z,5.20
2023-11-01T04:57:40.298Z,5.33
2023-11-01T05:00:10.569Z,5.13
2023-11-01T05:02:42.163Z,5.10
2023-11-01T05:05:10.204Z,5.13
2023-11-01T05:07:39.337Z,4.97
2023-11-01T05:10:06.635Z,5.10
2023-11-01T05:12:34.727Z,5.37
2023-11-01T05:15:02.822Z,4.83
2023-11-01T05:17:31.500Z,5.60
2023-11-01T05:19:59.314Z,5.55
2023-11-01T05:22:27.437Z,5.40
2023-11-01T05:24:55.247Z,5.80
2023-11-01T05:27:23.275Z,5.30
2023-11-01T05:29:51.476Z,5.97
2023-11-01T05:32:19.850Z,5.40
2023-11-01T05:34:49.603Z,5.43
2023-11-01T05:37:16.274Z,6.03
2023-11-01T05:39:45.105Z,5.73
2023-11-01T05:42:12.974Z,5.78
2023-11-01T05:44:42.631Z,6.17
2023-11-01T05:47:10.951Z,6.33
2023-11-01T05:49:37.954Z,6.17
2023-11-01T05:52:05.080Z,6.17
2023-11-01T05:54:36.315Z,6.00
2023-11-01T05:57:04.995Z,6.07
2023-11-01T05:59:33.174Z,6.00
2023-11-01T06:02:01.064Z,6.33
2023-11-01T06:04:29.983Z,6.80
2023-11-01T06:06:58.672Z,6.20
2023-11-01T06:09:26.078Z,6.13
2023-11-01T06:11:52.803Z,6.23
2023-11-01T06:14:22.030Z,6.30
2023-11-01T06:16:48.799Z,6.65
2023-11-01T06:19:15.520Z,6.50
2023-11-01T06:21:42.326Z,7.17
2023-11-01T06:24:09.416Z,6.53
2023-11-01T06:26:37.120Z,6.53
2023-11-01T06:29:04.536Z,5.73
2023-11-01T06:31:31.279Z,5.53
2023-11-01T06:33:58.042Z,6.00
2023-11-01T06:36:24.928Z,5.37
2023-11-01T06:38:51.648Z,5.97
2023-11-01T06:41:19.417Z,5.80
2023-11-01T06:43:47.856Z,5.70
2023-11-01T06:46:15.630Z,5.30
2023-11-01T06:48:47.316Z,5.40
2023-11-01T06:51:16.305Z,5.53
2023-11-01T06:53:44.664Z,5.40
2023-11-01T06:56:12.530Z,5.40
2023-11-01T06:58:40.750Z,5.23
2023-11-01T07:01:09.066Z,5.70
2023-11-01T07:03:39.761Z,6.23
2023-11-01T07:06:11.694Z,5.50
2023-11-01T07:08:46.652Z,5.53
2023-11-01T07:11:16.532Z,5.57
2023-11-01T07:13:49.147Z,5.50
2023-11-01T07:16:20.241Z,5.20
2023-11-01T07:18:50.649Z,5.40
2023-11-01T07:21:41.647Z,5.37
2023-11-01T07:24:11.195Z,5.20
2023-11-01T07:26:41.418Z,5.27
2023-11-01T07:29:12.863Z,5.60
2023-11-01T07:31:48.960Z,5.10
2023-11-01T07:34:20.746Z,7.77
2023-11-01T07:36:51.299Z,6.87
2023-11-01T07:39:22.281Z,5.80
2023-11-01T07:41:58.036Z,5.00
2023-11-01T07:44:28.172Z,5.47
2023-11-01T07:47:01.664Z,5.20
2023-11-01T07:49:29.343Z,4.30
2023-11-01T07:51:56.858Z,4.40
2023-11-01T07:54:25.102Z,4.47
2023-11-01T07:56:53.788Z,3.83
2023-11-01T07:59:33.269Z,4.20
2023-11-01T08:02:02.230Z,3.97
2023-11-01T08:04:30.515Z,4.28
2023-11-01T08:07:02.592Z,3.60
2023-11-01T08:09:33.104Z,4.57
2023-11-01T08:12:04.119Z,3.80
2023-11-01T08:14:34.527Z,3.60
2023-11-01T08:17:02.692Z,3.70
2023-11-01T08:19:33.040Z,3.50
2023-11-01T08:22:01.113Z,3.50
2023-11-01T08:24:29.423Z,3.57
2023-11-01T08:26:57.443Z,3.50
2023-11-01T08:29:25.392Z,3.37
2023-11-01T08:31:55.585Z,3.00
2023-11-01T08:34:24.092Z,3.20
2023-11-01T08:36:51.079Z,3.35
2023-11-01T08:39:19.309Z,3.10
2023-11-01T08:41:47.152Z,3.08
2023-11-01T08:44:15.144Z,3.07
2023-11-01T08:46:42.933Z,3.30
2023-11-01T08:49:12.676Z,3.20
2023-11-01T08:51:50.299Z,3.10
2023-11-01T08:54:18.037Z,3.07
2023-11-01T08:56:46.114Z,3.10
2023-11-01T08:59:14.245Z,2.90
2023-11-01T09:01:42.218Z,2.87
2023-11-01T09:04:10.600Z,3.20
2023-11-01T09:06:39.745Z,3.15
2023-11-01T09:09:08.204Z,2.70
2023-11-01T09:11:36.485Z,2.90
2023-11-01T09:14:04.429Z,2.90
2023-11-01T09:16:33.202Z,3.00
2023-11-01T09:19:00.703Z,3.28
2023-11-01T09:21:28.395Z,2.90
2023-11-01T09:23:56.494Z,2.90
2023-11-01T09:26:25.220Z,2.53
2023-11-01T09:28:53.008Z,2.70
2023-11-01T09:31:23.337Z,2.60
2023-11-01T09:33:51.650Z,2.63
2023-11-01T09:36:19.534Z,2.60
2023-11-01T09:38:47.815Z,2.50
2023-11-01T09:41:21.406Z,2.65
2023-11-01T09:43:52.826Z,2.63
2023-11-01T09:46:21.093Z,2.50
2023-11-01T09:48:48.068Z,2.40
2023-11-01T09:51:18.063Z,2.40
2023-11-01T09:53:46.258Z,2.40
2023-11-01T09:56:14.386Z,2.40
2023-11-01T09:58:42.875Z,2.10
2023-11-01T10:01:11.369Z,2.40
2023-11-01T10:03:39.576Z,2.45
2023-11-01T10:06:09.159Z,2.35
2023-11-01T10:08:36.940Z,2.30
2023-11-01T10:11:05.246Z,2.70
2023-11-01T10:13:34.733Z,2.58
2023-11-01T10:16:02.840Z,2.47
2023-11-01T10:18:30.939Z,2.30
2023-11-01T10:20:58.978Z,2.47
2023-11-01T10:23:30.048Z,2.37
2023-11-01T10:25:58.166Z,2.37
2023-11-01T10:28:26.268Z,2.40
2023-11-01T10:30:55.067Z,2.10
2023-11-01T10:33:23.489Z,2.05
2023-11-01T10:36:02.101Z,2.13
2023-11-01T10:38:31.629Z,2.40
2023-11-01T10:41:04.979Z,2.40
2023-11-01T10:43:33.048Z,2.20
2023-11-01T10:46:04.199Z,2.23
2023-11-01T10:48:32.051Z,2.00
2023-11-01T10:50:59.752Z,2.27
2023-11-01T10:53:26.682Z,2.30
2023-11-01T10:55:54.987Z,2.10
2023-11-01T10:58:31.040Z,2.20
2023-11-01T11:01:51.482Z,2.50
2023-11-01T11:04:42.936Z,2.47
2023-11-01T11:07:46.330Z,2.40
2023-11-01T11:10:38.031Z,2.30
2023-11-01T11:13:20.341Z,2.50
2023-11-01T11:16:10.427Z,2.20
2023-11-01T11:18:48.665Z,2.30
2023-11-01T11:21:56.857Z,2.15
2023-11-01T11:24:46.020Z,2.30
2023-11-01T11:27:50.482Z,2.40
2023-11-01T11:31:11.617Z,2.40
2023-11-01T11:33:51.690Z,2.83
2023-11-01T11:36:22.970Z,2.80
2023-11-01T11:38:52.603Z,2.80
2023-11-01T11:41:29.669Z,2.43
2023-11-01T11:44:26.942Z,2.23
2023-11-01T11:46:56.408Z,2.40
2023-11-01T11:49:34.167Z,2.43
2023-11-01T11:52:13.283Z,2.67
2023-11-01T11:54:44.590Z,2.30
2023-11-01T11:57:17.450Z,2.20
2023-11-01T11:59:44.384Z,2.50
2023-11-01T12:02:18.066Z,2.93
2023-11-01T12:04:46.499Z,2.37
2023-11-01T12:07:20.314Z,2.38
2023-11-01T12:09:54.024Z,3.10
2023-11-01T12:12:25.708Z,3.20
2023-11-01T12:15:03.049Z,2.40
2023-11-01T12:17:34.110Z,2.60
2023-11-01T12:20:04.471Z,3.17
2023-11-01T12:22:38.600Z,3.00
2023-11-01T12:25:07.116Z,3.03
2023-11-01T12:27:35.303Z,2.63
2023-11-01T12:30:06.489Z,2.10
2023-11-01T12:32:39.911Z,2.40
2023-11-01T12:35:08.434Z,2.47
2023-11-01T12:37:37.407Z,3.13
2023-11-01T12:40:14.773Z,2.47
2023-11-01T12:42:48.594Z,2.57
2023-11-01T12:45:17.999Z,2.47
2023-11-01T12:47:53.481Z,2.33
2023-11-01T12:50:22.291Z,2.40
2023-11-01T12:52:50.618Z,2.40
2023-11-01T12:55:19.452Z,2.20
2023-11-01T12:57:55.128Z,2.95
2023-11-01T13:00:29.244Z,3.27
2023-11-01T13:03:03.517Z,2.50
2023-11-01T13:05:31.892Z,2.87
2023-11-01T13:08:02.338Z,2.40
2023-11-01T13:10:29.017Z,2.33
2023-11-01T13:12:56.891Z,2.30
2023-11-01T13:15:26.424Z,3.03
2023-11-01T13:17:56.824Z,2.30
2023-11-01T13:20:25.019Z,3.17
2023-11-01T13:22:54.942Z,2.03
2023-11-01T13:25:22.963Z,2.10
2023-11-01T13:27:51.043Z,2.40
2023-11-01T13:30:17.742Z,2.40
2023-11-01T13:32:45.755Z,3.10
2023-11-01T13:35:14.052Z,2.33
2023-11-01T13:37:44.679Z,2.22
2023-11-01T13:40:12.609Z,4.30
2023-11-01T13:42:40.695Z,3.40
2023-11-01T13:45:09.620Z,2.70
2023-11-01T13:47:37.482Z,3.05
2023-11-01T13:50:04.681Z,2.47
2023-11-01T13:52:32.513Z,2.70
2023-11-01T13:54:59.443Z,2.40
2023-11-01T13:57:28.567Z,2.30
2023-11-01T14:02:24.820Z,2.25
2023-11-01T14:04:53.617Z,2.30
2023-11-01T14:07:21.773Z,2.45
2023-11-01T14:09:52.474Z,3.03
2023-11-01T14:12:20.636Z,2.63
2023-11-01T14:14:48.572Z,2.47
2023-11-01T14:17:16.708Z,2.50
2023-11-01T14:19:47.296Z,2.40
2023-11-01T14:22:15.417Z,3.53
2023-11-01T14:24:46.386Z,3.97
2023-11-01T14:27:14.613Z,3.27
2023-11-01T14:29:43.057Z,3.40
2023-11-01T14:32:14.783Z,4.18
2023-11-01T14:34:43.326Z,2.30
2023-11-01T14:37:11.103Z,2.55
2023-11-01T14:39:40.272Z,3.50
2023-11-01T14:42:10.383Z,2.58
2023-11-01T14:44:40.844Z,3.10
2023-11-01T14:47:10.919Z,3.10
2023-11-01T14:49:39.010Z,3.00
2023-11-01T14:52:06.864Z,2.90
2023-11-01T14:54:34.854Z,2.90
2023-11-01T14:57:01.806Z,2.90
2023-11-01T14:59:29.883Z,2.87
2023-11-01T15:01:57.712Z,2.90
2023-11-01T15:04:25.807Z,3.10
2023-11-01T15:06:52.464Z,3.60
2023-11-01T15:09:21.876Z,8.80
2023-11-01T15:11:52.514Z,4.20
2023-11-01T15:14:20.451Z,3.20
2023-11-01T15:16:50.800Z,3.47
2023-11-01T15:19:18.619Z,3.50
2023-11-01T15:21:46.930Z,3.53
2023-11-01T15:24:15.127Z,3.47
2023-11-01T15:26:41.943Z,3.77
2023-11-01T15:29:12.850Z,5.37
2023-11-01T15:31:41.067Z,6.20
2023-11-01T15:34:09.730Z,5.40
2023-11-01T15:36:38.149Z,4.50
2023-11-01T15:39:06.235Z,4.70
2023-11-01T15:41:34.594Z,6.67
2023-11-01T15:44:02.782Z,18.10
2023-11-01T15:46:30.582Z,16.47
2023-11-01T15:48:57.265Z,15.57
2023-11-01T15:51:27.509Z,7.03
2023-11-01T15:53:55.752Z,5.67
2023-11-01T15:56:23.823Z,7.70
2023-11-01T15:58:51.702Z,7.07
2023-11-01T16:01:21.126Z,6.47
2023-11-01T16:06:17.845Z,8.32
2023-11-01T16:08:46.300Z,7.10
2023-11-01T16:11:14.356Z,6.83
2023-11-01T16:13:42.941Z,7.57
2023-11-01T16:16:11.675Z,7.20
2023-11-01T16:18:39.516Z,8.57
2023-11-01T16:21:07.527Z,8.13
2023-11-01T16:23:35.730Z,8.70
2023-11-01T16:26:04.219Z,7.17
2023-11-01T16:28:32.011Z,6.90
2023-11-01T16:31:00.381Z,6.10
2023-11-01T16:33:28.260Z,7.33
2023-11-01T16:35:56.408Z,6.83
2023-11-01T16:38:25.933Z,7.50
2023-11-01T16:40:54.101Z,6.17
2023-11-01T16:43:22.196Z,6.60
2023-11-01T16:45:50.432Z,6.47
2023-11-01T16:48:18.305Z,6.63
2023-11-01T16:50:46.131Z,5.40
2023-11-01T16:53:14.236Z,6.00
2023-11-01T16:55:41.998Z,5.90
2023-11-01T16:58:09.885Z,7.90
2023-11-01T17:00:39.019Z,12.10
2023-11-01T17:03:09.528Z,14.43
2023-11-01T17:43:55.025Z,16.17
2023-11-01T17:46:26.070Z,23.53
2023-11-01T17:48:55.360Z,25.10
2023-11-01T17:51:23.504Z,12.45
2023-11-01T17:53:53.582Z,15.23
2023-11-01T17:56:21.337Z,11.13
2023-11-01T17:58:56.277Z,11.70
2023-11-01T18:01:26.689Z,8.67
2023-11-01T18:03:56.061Z,7.83
2023-11-01T18:06:24.795Z,8.07
2023-11-01T18:08:53.227Z,8.23
2023-11-01T18:11:22.977Z,8.40
2023-11-01T18:13:50.805Z,9.23
2023-11-01T18:16:29.084Z,8.30
2023-11-01T18:18:58.362Z,8.85
2023-11-01T18:21:31.945Z,8.32
2023-11-01T18:24:15.455Z,8.70
2023-11-01T18:26:43.855Z,12.03
2023-11-01T18:29:12.183Z,13.03
2023-11-01T18:31:48.173Z,13.97
2023-11-01T18:34:25.144Z,12.20
2023-11-01T18:36:54.318Z,10.00
2023-11-01T18:39:24.630Z,9.43
2023-11-01T18:41:52.762Z,9.80
2023-11-01T18:44:27.491Z,9.57
2023-11-01T18:46:58.883Z,9.40
2023-11-01T18:49:47.593Z,8.43
2023-11-01T18:52:18.208Z,8.63
2023-11-01T18:54:48.226Z,9.33
2023-11-01T18:57:23.805Z,9.90
2023-11-01T18:59:51.714Z,10.63
2023-11-01T19:02:49.519Z,8.70
2023-11-01T19:05:23.204Z,8.03
2023-11-01T19:08:01.620Z,8.40
2023-11-01T19:10:34.725Z,8.87
2023-11-01T19:13:03.437Z,9.20
2023-11-01T19:15:39.086Z,11.23
2023-11-01T19:18:34.281Z,9.07
2023-11-01T19:21:04.069Z,9.60
2023-11-01T19:26:05.944Z,9.73
2023-11-01T19:28:38.666Z,8.67
2023-11-01T19:31:10.690Z,9.53
2023-11-01T19:33:39.571Z,9.70
2023-11-01T19:36:14.085Z,9.00
2023-11-01T19:38:44.823Z,9.43
2023-11-01T19:41:16.790Z,8.80
2023-11-01T19:43:46.396Z,10.60
2023-11-01T19:48:43.076Z,9.03
2023-11-01T19:51:10.868Z,8.57
2023-11-01T19:53:38.660Z,8.33
2023-11-01T19:56:15.837Z,7.73
2023-11-01T19:58:49.269Z,7.50
2023-11-01T20:01:18.812Z,7.33
2023-11-01T20:03:59.301Z,6.35
2023-11-01T20:09:11.294Z,5.67
2023-11-01T20:11:40.291Z,5.40
2023-11-01T20:14:08.034Z,5.10
2023-11-01T20:16:36.222Z,5.20
2023-11-01T20:19:04.505Z,4.70
2023-11-01T20:21:33.813Z,4.87
2023-11-01T20:24:01.377Z,5.03
2023-11-01T20:26:30.590Z,6.53
2023-11-01T20:29:00.478Z,5.72
2023-11-01T20:31:29.785Z,4.90
2023-11-01T20:33:56.489Z,5.00
2023-11-01T20:36:25.959Z,4.73
2023-11-01T20:38:54.939Z,5.00
2023-11-01T20:41:24.286Z,4.50
2023-11-01T20:43:52.191Z,5.30
2023-11-01T20:46:23.360Z,4.70
2023-11-01T20:48:52.021Z,4.80
2023-11-01T20:51:26.181Z,4.87
2023-11-01T20:53:55.198Z,4.87
2023-11-01T20:56:23.527Z,6.32
2023-11-01T20:58:51.694Z,5.20
2023-11-01T21:01:20.182Z,4.90
2023-11-01T21:03:46.968Z,5.23
2023-11-01T21:06:15.251Z,5.00
2023-11-01T21:08:43.017Z,5.27
2023-11-01T21:11:09.731Z,5.13
2023-11-01T21:13:37.736Z,4.80
2023-11-01T21:16:07.051Z,4.73
2023-11-01T21:18:35.236Z,5.15
2023-11-01T21:21:04.153Z,5.30
2023-11-01T21:23:32.550Z,5.15
2023-11-01T21:26:00.732Z,5.93
2023-11-01T21:28:28.889Z,4.87
2023-11-01T21:31:00.460Z,5.63
2023-11-01T21:33:28.579Z,5.00
2023-11-01T21:35:56.514Z,4.70
2023-11-01T21:38:25.271Z,4.93
2023-11-01T21:40:52.944Z,4.50
2023-11-01T21:43:21.761Z,5.20
2023-11-01T21:45:56.597Z,5.27
2023-11-01T21:48:28.512Z,5.10
2023-11-01T21:51:00.539Z,4.63
2023-11-01T21:53:31.101Z,4.97
2023-11-01T21:56:01.932Z,4.87
2023-11-01T21:58:32.443Z,4.97
2023-11-01T22:01:05.393Z,4.57
2023-11-01T22:03:48.635Z,5.27
2023-11-01T22:06:29.317Z,5.40
2023-11-01T22:09:16.917Z,4.80
2023-11-01T22:11:52.384Z,4.50
2023-11-01T22:14:31.358Z,4.83
2023-11-01T22:17:03.996Z,4.63
2023-11-01T22:19:42.763Z,4.87
2023-11-01T22:22:24.775Z,5.32
2023-11-01T22:24:54.535Z,5.07
2023-11-01T22:27:29.552Z,4.70
2023-11-01T22:29:58.241Z,5.00
2023-11-01T22:32:29.506Z,5.17
2023-11-01T22:34:57.348Z,5.10
2023-11-01T22:37:26.958Z,4.97
2023-11-01T22:39:56.668Z,4.93
2023-11-01T22:42:31.018Z,5.00
2023-11-01T22:45:03.734Z,4.77
2023-11-01T22:47:32.108Z,5.30
2023-11-01T22:50:00.665Z,5.13
2023-11-01T22:52:28.824Z,5.63
2023-11-01T22:54:56.823Z,5.30
2023-11-01T22:57:24.928Z,5.47
2023-11-01T22:59:52.784Z,5.23
2023-11-01T23:02:21.172Z,4.50
2023-11-01T23:04:50.330Z,5.30
2023-11-01T23:07:17.103Z,4.78
2023-11-01T23:09:44.752Z,4.90
2023-11-01T23:12:13.623Z,5.03
2023-11-01T23:14:41.852Z,4.80
2023-11-01T23:17:11.098Z,5.30
2023-11-01T23:19:39.741Z,5.20
2023-11-01T23:22:07.692Z,5.10
2023-11-01T23:24:34.900Z,4.77
2023-11-01T23:27:06.036Z,5.30
2023-11-01T23:29:35.911Z,5.27
2023-11-01T23:32:12.684Z,4.82
2023-11-01T23:34:54.500Z,5.00
2023-11-01T23:37:36.116Z,4.63
2023-11-01T23:40:12.111Z,4.57
2023-11-01T23:42:39.103Z,4.83
2023-11-01T23:45:46.921Z,4.90
2023-11-01T23:48:17.288Z,5.27
2023-11-01T23:50:45.292Z,4.80
2023-11-01T23:53:21.699Z,4.53
2023-11-01T23:55:52.206Z,4.70
2023-11-01T23:58:38.402Z,5.30
